createdAt,value
2022-10-04T00:00:44.835Z,100.00
2022-10-04T00:04:19.092Z,100.00
2022-10-04T00:07:24.746Z,100.00
2022-10-04T00:10:30.453Z,100.00
2022-10-04T00:13:34.142Z,100.00
2022-10-04T00:16:40.858Z,100.00
2022-10-04T00:19:45.669Z,100.00
2022-10-04T00:23:25.491Z,100.00
2022-10-04T00:26:30.208Z,100.00
2022-10-04T00:29:34.299Z,100.00
2022-10-04T00:32:39.576Z,100.00
2022-10-04T00:35:44.575Z,100.00
2022-10-04T00:39:02.255Z,100.00
2022-10-04T00:42:26.689Z,100.00
2022-10-04T00:45:37.781Z,100.00
2022-10-04T00:48:45.425Z,100.00
2022-10-04T00:51:52.296Z,100.00
2022-10-04T00:54:57.886Z,100.00
2022-10-04T00:58:01.471Z,100.00
2022-10-04T01:01:04.306Z,100.00
2022-10-04T01:04:29.371Z,100.00
2022-10-04T01:07:38.505Z,100.00
2022-10-04T01:10:52.027Z,100.00
2022-10-04T01:13:57.306Z,100.00
2022-10-04T01:16:59.369Z,100.00
2022-10-04T01:20:02.350Z,100.00
2022-10-04T01:23:10.255Z,100.00
2022-10-04T01:26:34.892Z,100.00
2022-10-04T01:29:36.690Z,100.00
2022-10-04T01:32:38.830Z,100.00
2022-10-04T01:35:45.011Z,100.00
2022-10-04T01:38:47.658Z,100.00
2022-10-04T01:42:18.935Z,100.00
2022-10-04T01:45:39.803Z,100.00
2022-10-04T01:48:44.455Z,100.00
2022-10-04T01:51:58.139Z,100.00
2022-10-04T01:55:04.121Z,100.00
2022-10-04T01:58:09.990Z,100.00
2022-10-04T02:01:27.707Z,100.00
2022-10-04T02:04:32.878Z,100.00
2022-10-04T02:07:36.973Z,100.00
2022-10-04T02:10:43.433Z,100.00
2022-10-04T02:13:46.542Z,100.00
2022-10-04T02:16:52.321Z,100.00
2022-10-04T02:19:54.578Z,100.00
2022-10-04T02:22:59.587Z,100.00
2022-10-04T02:26:06.025Z,100.00
2022-10-04T02:29:10.049Z,100.00
2022-10-04T02:32:33.194Z,100.00
2022-10-04T02:35:38.806Z,100.00
2022-10-04T02:38:58.788Z,100.00
2022-10-04T02:42:11.317Z,100.00
2022-10-04T02:45:19.319Z,100.00
2022-10-04T02:48:39.731Z,100.00
2022-10-04T02:51:47.477Z,100.00
2022-10-04T02:54:55.616Z,100.00
2022-10-04T02:57:58.731Z,100.00
2022-10-04T03:01:01.890Z,100.00
2022-10-04T03:04:03.884Z,100.00
2022-10-04T03:07:07.297Z,100.00
2022-10-04T03:10:12.767Z,100.00
2022-10-04T03:13:16.128Z,100.00
2022-10-04T03:16:18.415Z,100.00
2022-10-04T03:19:22.482Z,100.00
2022-10-04T03:22:24.317Z,100.00
2022-10-04T03:25:30.867Z,100.00
2022-10-04T03:28:32.740Z,100.00
2022-10-04T03:31:35.367Z,100.00
2022-10-04T03:34:39.323Z,100.00
2022-10-04T03:37:41.544Z,100.00
2022-10-04T03:40:51.627Z,100.00
2022-10-04T03:43:55.680Z,100.00
2022-10-04T03:46:57.906Z,100.00
2022-10-04T03:50:04.126Z,100.00
2022-10-04T03:53:12.660Z,100.00
2022-10-04T03:56:21.116Z,100.00
2022-10-04T03:59:25.638Z,100.00
2022-10-04T04:02:36.109Z,100.00
2022-10-04T04:05:44.918Z,100.00
2022-10-04T04:08:49.465Z,100.00
2022-10-04T04:11:51.915Z,100.00
2022-10-04T04:14:54.029Z,100.00
2022-10-04T04:17:56.132Z,100.00
2022-10-04T04:20:59.851Z,100.00
2022-10-04T04:24:05.651Z,100.00
2022-10-04T04:27:10.455Z,100.00
2022-10-04T04:30:16.928Z,100.00
2022-10-04T04:33:43.463Z,100.00
2022-10-04T04:36:45.161Z,100.00
2022-10-04T04:39:52.311Z,100.00
2022-10-04T04:42:59.295Z,100.00
2022-10-04T04:46:26.191Z,100.00
2022-10-04T04:49:24.445Z,100.00
2022-10-04T04:52:29.066Z,100.00
2022-10-04T04:56:01.930Z,100.00
2022-10-04T04:59:02.949Z,100.00
2022-10-04T05:02:04.778Z,100.00
2022-10-04T05:05:25.269Z,100.00
2022-10-04T05:08:31.625Z,100.00
2022-10-04T05:11:37.376Z,100.00
2022-10-04T05:14:44.243Z,100.00
2022-10-04T05:17:46.234Z,100.00
2022-10-04T05:20:50.849Z,100.00
2022-10-04T05:23:53.345Z,100.00
2022-10-04T05:27:03.064Z,100.00
2022-10-04T05:30:42.765Z,100.00
2022-10-04T05:33:50.480Z,100.00
2022-10-04T05:37:01.338Z,100.00
2022-10-04T05:40:15.286Z,100.00
2022-10-04T05:43:30.816Z,100.00
2022-10-04T05:46:35.030Z,100.00
2022-10-04T05:49:44.659Z,100.00
2022-10-04T05:52:50.374Z,100.00
2022-10-04T05:56:11.949Z,100.00
2022-10-04T05:59:27.383Z,100.00
2022-10-04T06:02:55.005Z,100.00
2022-10-04T06:06:01.788Z,100.00
2022-10-04T06:09:03.717Z,100.00
2022-10-04T06:12:10.081Z,100.00
2022-10-04T06:15:43.423Z,100.00
2022-10-04T06:19:03.357Z,100.00
2022-10-04T06:22:20.791Z,100.00
2022-10-04T06:25:29.520Z,100.00
2022-10-04T06:28:40.975Z,100.00
2022-10-04T06:32:01.787Z,100.00
2022-10-04T06:35:25.973Z,100.00
2022-10-04T06:38:41.383Z,100.00
2022-10-04T06:41:49.725Z,100.00
2022-10-04T06:44:58.654Z,100.00
2022-10-04T06:48:28.544Z,100.00
2022-10-04T06:51:37.295Z,100.00
2022-10-04T06:55:00.751Z,100.00
2022-10-04T06:58:08.754Z,100.00
2022-10-04T07:01:31.408Z,100.00
2022-10-04T07:05:06.924Z,100.00
2022-10-04T07:08:11.618Z,100.00
2022-10-04T07:11:33.024Z,100.00
2022-10-04T07:14:38.853Z,100.00
2022-10-04T07:17:42.715Z,100.00
2022-10-04T07:20:45.502Z,100.00
2022-10-04T07:24:01.919Z,100.00
2022-10-04T07:27:04.822Z,100.00
2022-10-04T07:30:14.763Z,100.00
2022-10-04T07:33:23.716Z,100.00
2022-10-04T07:36:30.135Z,100.00
2022-10-04T07:39:48.121Z,100.00
2022-10-04T07:43:00.793Z,100.00
2022-10-04T07:46:14.498Z,100.00
2022-10-04T07:49:20.058Z,100.00
2022-10-04T07:52:29.979Z,100.00
2022-10-04T07:55:56.211Z,100.00
2022-10-04T07:59:29.943Z,100.00
2022-10-04T08:02:54.788Z,100.00
2022-10-04T08:06:12.271Z,100.00
2022-10-04T08:09:13.986Z,100.00
2022-10-04T08:12:42.210Z,100.00
2022-10-04T08:15:44.983Z,100.00
2022-10-04T08:19:25.299Z,100.00
2022-10-04T08:22:59.427Z,100.00
2022-10-04T08:26:38.064Z,100.00
2022-10-04T08:29:49.451Z,100.00
2022-10-04T08:33:06.560Z,100.00
2022-10-04T08:36:21.650Z,100.00
2022-10-04T08:39:33.868Z,100.00
2022-10-04T08:43:01.828Z,100.00
2022-10-04T08:46:22.473Z,100.00
2022-10-04T08:49:54.930Z,100.00
2022-10-04T08:53:25.128Z,100.00
2022-10-04T08:56:49.640Z,100.00
2022-10-04T09:00:01.348Z,100.00
2022-10-04T09:03:09.736Z,100.00
2022-10-04T09:06:30.529Z,100.00
2022-10-04T09:10:26.918Z,100.00
2022-10-04T09:13:46.868Z,100.00
2022-10-04T09:16:52.419Z,100.00
2022-10-04T09:20:37.856Z,100.00
2022-10-04T09:23:58.162Z,100.00
2022-10-04T09:27:12.379Z,100.00
2022-10-04T09:30:21.503Z,100.00
2022-10-04T09:33:55.568Z,100.00
2022-10-04T09:37:23.647Z,100.00
2022-10-04T09:41:00.382Z,100.00
2022-10-04T09:44:50.998Z,100.00
2022-10-04T09:48:37.911Z,100.00
2022-10-04T09:52:19.775Z,100.00
2022-10-04T09:55:42.693Z,100.00
2022-10-04T09:59:12.795Z,100.00
2022-10-04T10:02:38.738Z,100.00
2022-10-04T10:06:12.450Z,100.00
2022-10-04T10:09:52.168Z,100.00
2022-10-04T10:13:45.695Z,100.00
2022-10-04T10:17:08.214Z,100.00
2022-10-04T10:20:32.145Z,100.00
2022-10-04T10:23:44.315Z,100.00
2022-10-04T10:26:46.491Z,100.00
2022-10-04T10:30:06.293Z,100.00
2022-10-04T10:33:20.621Z,100.00
2022-10-04T10:36:39.021Z,100.00
2022-10-04T10:40:05.437Z,100.00
2022-10-04T10:43:27.231Z,99.83
2022-10-04T10:46:43.147Z,99.97
2022-10-04T10:50:04.095Z,100.00
2022-10-04T10:53:30.139Z,99.43
2022-10-04T10:57:01.000Z,100.00
2022-10-04T11:00:18.073Z,99.42
2022-10-04T11:03:23.890Z,98.03
2022-10-04T11:06:56.146Z,98.43
2022-10-04T11:10:29.406Z,98.55
2022-10-04T11:13:54.506Z,99.22
2022-10-04T11:17:21.235Z,97.85
2022-10-04T11:20:24.974Z,95.56
2022-10-04T11:24:02.385Z,94.82
2022-10-04T11:27:19.210Z,94.77
2022-10-04T11:30:26.409Z,95.46
2022-10-04T11:33:48.503Z,96.22
2022-10-04T11:37:28.459Z,94.36
2022-10-04T11:40:42.642Z,94.41
2022-10-04T11:44:18.808Z,94.98
2022-10-04T11:47:58.054Z,95.92
2022-10-04T11:51:28.467Z,95.61
2022-10-04T11:54:56.215Z,95.62
2022-10-04T11:58:18.157Z,95.85
2022-10-04T12:01:40.937Z,95.39
2022-10-04T12:05:13.764Z,95.34
2022-10-04T12:08:39.353Z,95.13
2022-10-04T12:12:37.769Z,95.20
2022-10-04T12:16:01.109Z,94.71
2022-10-04T12:19:20.364Z,94.19
2022-10-04T12:22:52.151Z,94.59
2022-10-04T12:26:33.070Z,95.77
2022-10-04T12:30:03.209Z,95.27
2022-10-04T12:33:26.977Z,94.01
2022-10-04T12:36:50.225Z,93.47
2022-10-04T12:39:51.977Z,93.41
2022-10-04T12:43:07.013Z,93.72
2022-10-04T12:46:42.865Z,93.63
2022-10-04T12:50:03.035Z,93.29
2022-10-04T12:53:17.148Z,93.06
2022-10-04T12:56:40.729Z,93.69
2022-10-04T12:59:48.259Z,93.13
2022-10-04T13:03:24.017Z,91.45
2022-10-04T13:06:50.969Z,92.13
2022-10-04T13:10:25.282Z,93.13
2022-10-04T13:13:42.029Z,93.21
2022-10-04T13:20:27.088Z,90.00
2022-10-04T13:23:50.209Z,90.16
2022-10-04T13:26:52.008Z,89.07
2022-10-04T13:30:05.571Z,88.41
2022-10-04T13:33:10.301Z,88.52
2022-10-04T13:36:26.937Z,87.20
2022-10-04T13:39:50.409Z,87.91
2022-10-04T13:43:09.052Z,87.84
2022-10-04T13:46:16.154Z,88.50
2022-10-04T13:49:38.325Z,89.34
2022-10-04T13:53:28.679Z,89.43
2022-10-04T13:56:48.841Z,89.30
2022-10-04T14:00:17.698Z,89.45
2022-10-04T14:03:38.237Z,89.63
2022-10-04T14:07:06.130Z,88.89
2022-10-04T14:10:27.270Z,89.18
2022-10-04T14:14:00.575Z,87.95
2022-10-04T14:17:08.351Z,88.48
2022-10-04T14:20:29.648Z,88.07
2022-10-04T14:24:03.790Z,87.02
2022-10-04T14:27:11.431Z,87.24
2022-10-04T14:30:27.890Z,87.44
2022-10-04T14:33:55.023Z,88.13
2022-10-04T14:37:15.345Z,88.42
2022-10-04T14:40:38.490Z,87.91
2022-10-04T14:44:24.591Z,87.75
2022-10-04T14:47:43.122Z,87.68
2022-10-04T14:51:03.468Z,87.62
2022-10-04T14:54:25.847Z,87.17
2022-10-04T14:57:46.787Z,87.07
2022-10-04T15:01:16.395Z,87.75
2022-10-04T15:04:32.995Z,87.56
2022-10-04T15:07:41.185Z,86.72
2022-10-04T15:10:50.467Z,86.47
2022-10-04T15:13:55.964Z,85.64
2022-10-04T15:17:00.678Z,85.46
2022-10-04T15:20:20.848Z,86.00
2022-10-04T15:23:42.063Z,86.15
2022-10-04T15:27:06.081Z,86.23
2022-10-04T15:30:31.991Z,86.18
2022-10-04T15:33:43.970Z,86.17
2022-10-04T15:37:02.001Z,86.47
2022-10-04T15:40:09.562Z,86.41
2022-10-04T15:43:23.351Z,86.41
2022-10-04T15:46:46.884Z,86.54
2022-10-04T15:50:17.455Z,86.43
2022-10-04T15:53:41.070Z,86.31
2022-10-04T15:56:49.526Z,86.63
2022-10-04T16:00:08.937Z,86.89
2022-10-04T16:03:25.918Z,87.10
2022-10-04T16:06:56.069Z,87.18
2022-10-04T16:10:23.415Z,87.49
2022-10-04T16:13:31.950Z,87.51
2022-10-04T16:16:40.065Z,87.76
2022-10-04T16:20:10.075Z,87.96
2022-10-04T16:23:28.176Z,87.98
2022-10-04T16:26:29.964Z,88.04
2022-10-04T16:30:21.722Z,88.40
2022-10-04T16:33:30.358Z,88.39
2022-10-04T16:36:49.365Z,88.45
2022-10-04T16:40:11.999Z,88.28
2022-10-04T16:43:16.909Z,86.91
2022-10-04T16:46:30.410Z,86.14
2022-10-04T16:49:41.382Z,86.52
2022-10-04T16:52:48.434Z,87.12
2022-10-04T16:55:53.634Z,87.85
2022-10-04T16:59:36.734Z,88.31
2022-10-04T17:03:33.090Z,89.16
2022-10-04T17:06:44.430Z,88.99
2022-10-04T17:09:48.011Z,88.85
2022-10-04T17:13:35.089Z,89.19
2022-10-04T17:16:38.889Z,89.70
2022-10-04T17:19:52.488Z,90.34
2022-10-04T17:23:19.534Z,90.66
2022-10-04T17:26:27.270Z,91.89
2022-10-04T17:29:55.546Z,92.41
2022-10-04T17:33:08.238Z,92.51
2022-10-04T17:36:33.859Z,92.68
2022-10-04T17:39:49.253Z,93.33
2022-10-04T17:43:12.814Z,92.81
2022-10-04T17:46:24.387Z,92.63
2022-10-04T17:49:50.463Z,93.14
2022-10-04T17:53:19.472Z,93.41
2022-10-04T17:56:33.847Z,93.68
2022-10-04T17:59:46.343Z,93.69
2022-10-04T18:03:13.802Z,93.96
2022-10-04T18:06:43.913Z,93.94
2022-10-04T18:09:49.852Z,94.29
2022-10-04T18:13:01.817Z,94.56
2022-10-04T18:16:09.593Z,94.78
2022-10-04T18:19:36.511Z,95.13
2022-10-04T18:23:07.753Z,95.36
2022-10-04T18:26:21.248Z,95.50
2022-10-04T18:29:39.948Z,95.19
2022-10-04T18:32:53.035Z,94.80
2022-10-04T18:36:23.738Z,94.54
2022-10-04T18:39:25.603Z,93.99
2022-10-04T18:42:37.158Z,93.70
2022-10-04T18:45:39.630Z,93.57
2022-10-04T18:49:15.553Z,93.87
2022-10-04T18:52:39.190Z,93.86
2022-10-04T18:55:53.340Z,94.15
2022-10-04T18:59:36.675Z,94.49
2022-10-04T19:03:12.195Z,94.73
2022-10-04T19:06:32.629Z,94.85
2022-10-04T19:09:56.342Z,94.78
2022-10-04T19:13:10.005Z,94.96
2022-10-04T19:16:16.404Z,95.27
2022-10-04T19:19:47.043Z,95.38
2022-10-04T19:22:51.939Z,95.86
2022-10-04T19:26:30.031Z,96.29
2022-10-04T19:29:39.646Z,96.19
2022-10-04T19:32:47.639Z,96.05
2022-10-04T19:36:08.310Z,95.73
2022-10-04T19:39:38.409Z,96.17
2022-10-04T19:43:25.287Z,96.68
2022-10-04T19:46:43.853Z,97.02
2022-10-04T19:49:55.381Z,97.05
2022-10-04T19:53:19.605Z,96.97
2022-10-04T19:56:25.061Z,96.65
2022-10-04T19:59:41.240Z,97.28
2022-10-04T20:02:48.482Z,97.13
2022-10-04T20:05:53.893Z,97.06
2022-10-04T20:09:30.449Z,97.24
2022-10-04T20:12:40.175Z,97.13
2022-10-04T20:15:45.418Z,97.22
2022-10-04T20:18:59.095Z,97.09
2022-10-04T20:22:12.763Z,97.17
2022-10-04T20:25:45.742Z,97.20
2022-10-04T20:28:47.642Z,96.56
2022-10-04T20:31:54.035Z,96.42
2022-10-04T20:34:57.645Z,96.62
2022-10-04T20:38:27.409Z,97.21
2022-10-04T20:41:30.471Z,97.17
2022-10-04T20:44:45.587Z,96.87
2022-10-04T20:47:57.690Z,96.69
2022-10-04T20:51:09.833Z,97.41
2022-10-04T20:54:17.771Z,98.01
2022-10-04T20:57:24.107Z,97.84
2022-10-04T21:00:28.108Z,98.22
2022-10-04T21:03:30.673Z,98.45
2022-10-04T21:06:53.581Z,98.49
2022-10-04T21:10:07.178Z,98.66
2022-10-04T21:13:42.237Z,98.49
2022-10-04T21:16:47.330Z,98.09
2022-10-04T21:19:49.604Z,98.36
2022-10-04T21:23:07.917Z,98.44
2022-10-04T21:26:24.095Z,98.21
2022-10-04T21:29:25.798Z,98.41
2022-10-04T21:32:34.354Z,98.12
2022-10-04T21:35:36.056Z,98.01
2022-10-04T21:38:37.835Z,98.14
2022-10-04T21:41:39.429Z,98.34
2022-10-04T21:44:41.523Z,98.61
2022-10-04T21:47:43.231Z,98.98
2022-10-04T21:50:44.865Z,99.02
2022-10-04T21:53:47.060Z,98.78
2022-10-04T21:56:49.224Z,98.77
2022-10-04T21:59:51.345Z,98.98
2022-10-04T22:02:53.421Z,99.20
2022-10-04T22:05:55.112Z,99.59
2022-10-04T22:08:56.869Z,99.85
2022-10-04T22:11:58.754Z,99.84
2022-10-04T22:15:00.653Z,99.91
2022-10-04T22:18:02.599Z,99.95
2022-10-04T22:21:05.127Z,99.99
2022-10-04T22:24:15.508Z,99.97
2022-10-04T22:27:19.807Z,99.74
2022-10-04T22:30:30.127Z,99.82
2022-10-04T22:33:35.896Z,99.59
2022-10-04T22:36:39.434Z,99.46
2022-10-04T22:39:41.263Z,99.53
2022-10-04T22:42:43.451Z,99.63
2022-10-04T22:45:45.428Z,99.74
2022-10-04T22:48:49.201Z,99.85
2022-10-04T22:51:52.727Z,99.82
2022-10-04T22:54:57.880Z,99.81
2022-10-04T22:58:01.584Z,99.45
2022-10-04T23:01:08.995Z,99.52
2022-10-04T23:04:22.553Z,99.50
2022-10-04T23:07:45.019Z,99.20
2022-10-04T23:10:54.869Z,99.30
2022-10-04T23:13:57.998Z,99.53
2022-10-04T23:17:01.667Z,99.57
2022-10-04T23:20:09.397Z,99.63
2022-10-04T23:23:21.622Z,99.80
2022-10-04T23:26:25.233Z,100.00
2022-10-04T23:29:31.038Z,99.94
2022-10-04T23:32:33.135Z,100.00
2022-10-04T23:35:35.139Z,100.00
2022-10-04T23:38:37.108Z,100.00
2022-10-04T23:41:39.256Z,100.00
2022-10-04T23:44:41.334Z,100.00
2022-10-04T23:47:43.235Z,100.00
2022-10-04T23:50:45.111Z,100.00
2022-10-04T23:53:49.370Z,100.00
2022-10-04T23:56:51.777Z,100.00
2022-10-04T23:59:54.236Z,100.00
